sensor_id;sensor_type;location;lat;lon;timestamp;P1;durP1;ratioP1;P2;durP2;ratioP2
24637;SDS011;12773;50.162;8.548;2023-07-31T00:00:07;4.72;;;1.98;;
24637;SDS011;12773;50.162;8.548;2023-07-31T00:02:54;5.87;;;1.72;;
24637;SDS011;12773;50.162;8.548;2023-07-31T00:05:43;4.75;;;1.50;;
24637;SDS011;12773;50.162;8.548;2023-07-31T00:08:30;6.28;;;1.55;;
24637;SDS011;12773;50.162;8.548;2023-07-31T00:11:18;5.65;;;2.10;;
24637;SDS011;12773;50.162;8.548;2023-07-31T00:14:05;4.35;;;1.52;;
24637;SDS011;12773;50.162;8.548;2023-07-31T00:16:53;8.65;;;2.10;;
24637;SDS011;12773;50.162;8.548;2023-07-31T00:19:40;5.47;;;1.77;;
24637;SDS011;12773;50.162;8.548;2023-07-31T00:22:28;6.25;;;1.80;;
24637;SDS011;12773;50.162;8.548;2023-07-31T00:25:15;8.53;;;1.90;;
24637;SDS011;12773;50.162;8.548;2023-07-31T00:28:02;7.85;;;1.95;;
24637;SDS011;12773;50.162;8.548;2023-07-31T00:30:50;4.45;;;1.57;;
24637;SDS011;12773;50.162;8.548;2023-07-31T00:33:37;7.05;;;2.22;;
24637;SDS011;12773;50.162;8.548;2023-07-31T00:36:25;5.55;;;1.70;;
24637;SDS011;12773;50.162;8.548;2023-07-31T00:39:12;7.40;;;2.52;;
24637;SDS011;12773;50.162;8.548;2023-07-31T00:41:59;7.95;;;2.33;;
24637;SDS011;12773;50.162;8.548;2023-07-31T00:44:47;3.98;;;1.87;;
24637;SDS011;12773;50.162;8.548;2023-07-31T00:47:34;4.15;;;1.82;;
24637;SDS011;12773;50.162;8.548;2023-07-31T00:50:22;5.62;;;2.08;;
24637;SDS011;12773;50.162;8.548;2023-07-31T00:53:11;10.15;;;2.15;;
24637;SDS011;12773;50.162;8.548;2023-07-31T00:55:59;4.37;;;1.90;;
24637;SDS011;12773;50.162;8.548;2023-07-31T00:58:47;4.92;;;1.82;;
24637;SDS011;12773;50.162;8.548;2023-07-31T01:01:34;8.50;;;2.17;;
24637;SDS011;12773;50.162;8.548;2023-07-31T01:04:22;5.80;;;1.87;;
24637;SDS011;12773;50.162;8.548;2023-07-31T01:07:11;4.25;;;1.75;;
24637;SDS011;12773;50.162;8.548;2023-07-31T01:13:04;4.47;;;2.00;;
24637;SDS011;12773;50.162;8.548;2023-07-31T01:15:52;4.55;;;1.80;;
24637;SDS011;12773;50.162;8.548;2023-07-31T01:18:39;5.03;;;1.95;;
24637;SDS011;12773;50.162;8.548;2023-07-31T01:21:34;4.62;;;1.98;;
24637;SDS011;12773;50.162;8.548;2023-07-31T01:27:34;6.80;;;1.82;;
24637;SDS011;12773;50.162;8.548;2023-07-31T01:30:23;5.40;;;2.30;;
24637;SDS011;12773;50.162;8.548;2023-07-31T01:33:12;7.50;;;1.70;;
24637;SDS011;12773;50.162;8.548;2023-07-31T01:36:02;7.35;;;2.05;;
24637;SDS011;12773;50.162;8.548;2023-07-31T01:38:50;3.72;;;1.75;;
24637;SDS011;12773;50.162;8.548;2023-07-31T01:41:37;5.58;;;1.82;;
24637;SDS011;12773;50.162;8.548;2023-07-31T01:44:25;5.97;;;1.85;;
24637;SDS011;12773;50.162;8.548;2023-07-31T01:47:12;7.70;;;1.87;;
24637;SDS011;12773;50.162;8.548;2023-07-31T01:50:00;4.65;;;1.98;;
24637;SDS011;12773;50.162;8.548;2023-07-31T01:52:47;5.65;;;2.08;;
24637;SDS011;12773;50.162;8.548;2023-07-31T01:55:34;4.58;;;1.70;;
24637;SDS011;12773;50.162;8.548;2023-07-31T01:58:21;5.00;;;1.90;;
24637;SDS011;12773;50.162;8.548;2023-07-31T02:01:09;7.15;;;1.72;;
24637;SDS011;12773;50.162;8.548;2023-07-31T02:03:56;4.62;;;1.65;;
24637;SDS011;12773;50.162;8.548;2023-07-31T02:06:44;4.72;;;1.95;;
24637;SDS011;12773;50.162;8.548;2023-07-31T02:09:31;8.28;;;2.10;;
24637;SDS011;12773;50.162;8.548;2023-07-31T02:12:18;4.83;;;2.02;;
24637;SDS011;12773;50.162;8.548;2023-07-31T02:15:06;7.00;;;1.82;;
24637;SDS011;12773;50.162;8.548;2023-07-31T02:17:53;5.05;;;1.95;;
24637;SDS011;12773;50.162;8.548;2023-07-31T02:20:40;11.20;;;2.08;;
24637;SDS011;12773;50.162;8.548;2023-07-31T02:23:28;6.67;;;1.87;;
24637;SDS011;12773;50.162;8.548;2023-07-31T02:26:15;7.30;;;1.90;;
24637;SDS011;12773;50.162;8.548;2023-07-31T02:29:02;11.97;;;2.08;;
24637;SDS011;12773;50.162;8.548;2023-07-31T02:31:49;6.55;;;2.08;;
24637;SDS011;12773;50.162;8.548;2023-07-31T02:34:37;4.03;;;2.08;;
24637;SDS011;12773;50.162;8.548;2023-07-31T02:37:24;5.28;;;2.12;;
24637;SDS011;12773;50.162;8.548;2023-07-31T02:40:14;6.08;;;2.37;;
24637;SDS011;12773;50.162;8.548;2023-07-31T02:43:01;6.62;;;2.10;;
24637;SDS011;12773;50.162;8.548;2023-07-31T02:45:52;14.98;;;2.10;;
24637;SDS011;12773;50.162;8.548;2023-07-31T02:48:39;5.62;;;1.90;;
24637;SDS011;12773;50.162;8.548;2023-07-31T02:51:27;6.62;;;2.10;;
24637;SDS011;12773;50.162;8.548;2023-07-31T02:54:14;8.10;;;2.12;;
24637;SDS011;12773;50.162;8.548;2023-07-31T02:57:02;8.30;;;2.37;;
24637;SDS011;12773;50.162;8.548;2023-07-31T02:59:49;5.92;;;2.12;;
24637;SDS011;12773;50.162;8.548;2023-07-31T03:02:37;4.67;;;1.90;;
24637;SDS011;12773;50.162;8.548;2023-07-31T03:05:24;5.37;;;1.98;;
24637;SDS011;12773;50.162;8.548;2023-07-31T03:08:12;4.70;;;1.80;;
24637;SDS011;12773;50.162;8.548;2023-07-31T03:10:59;5.67;;;2.15;;
24637;SDS011;12773;50.162;8.548;2023-07-31T03:13:47;8.45;;;2.40;;
24637;SDS011;12773;50.162;8.548;2023-07-31T03:16:34;9.03;;;2.30;;
24637;SDS011;12773;50.162;8.548;2023-07-31T03:19:22;5.70;;;2.00;;
24637;SDS011;12773;50.162;8.548;2023-07-31T03:22:09;7.45;;;2.02;;
24637;SDS011;12773;50.162;8.548;2023-07-31T03:24:57;5.92;;;2.40;;
24637;SDS011;12773;50.162;8.548;2023-07-31T03:27:44;5.80;;;2.17;;
24637;SDS011;12773;50.162;8.548;2023-07-31T03:30:31;6.22;;;2.10;;
24637;SDS011;12773;50.162;8.548;2023-07-31T03:33:20;5.80;;;2.40;;
24637;SDS011;12773;50.162;8.548;2023-07-31T03:36:07;4.75;;;2.37;;
24637;SDS011;12773;50.162;8.548;2023-07-31T03:38:55;6.72;;;2.30;;
24637;SDS011;12773;50.162;8.548;2023-07-31T03:41:42;9.60;;;2.20;;
24637;SDS011;12773;50.162;8.548;2023-07-31T03:44:30;7.72;;;2.47;;
24637;SDS011;12773;50.162;8.548;2023-07-31T03:47:17;4.92;;;2.40;;
24637;SDS011;12773;50.162;8.548;2023-07-31T03:50:05;5.92;;;1.75;;
24637;SDS011;12773;50.162;8.548;2023-07-31T03:52:53;8.28;;;2.72;;
24637;SDS011;12773;50.162;8.548;2023-07-31T03:55:40;9.73;;;2.27;;
24637;SDS011;12773;50.162;8.548;2023-07-31T03:58:27;7.42;;;2.10;;
24637;SDS011;12773;50.162;8.548;2023-07-31T04:01:15;7.12;;;2.27;;
24637;SDS011;12773;50.162;8.548;2023-07-31T04:04:03;6.40;;;2.02;;
24637;SDS011;12773;50.162;8.548;2023-07-31T04:06:50;5.62;;;1.98;;
24637;SDS011;12773;50.162;8.548;2023-07-31T04:09:38;7.35;;;2.65;;
24637;SDS011;12773;50.162;8.548;2023-07-31T04:12:25;8.48;;;2.25;;
24637;SDS011;12773;50.162;8.548;2023-07-31T04:15:12;6.37;;;2.25;;
24637;SDS011;12773;50.162;8.548;2023-07-31T04:18:00;9.28;;;2.75;;
24637;SDS011;12773;50.162;8.548;2023-07-31T04:20:48;6.90;;;2.42;;
24637;SDS011;12773;50.162;8.548;2023-07-31T04:23:35;11.73;;;2.20;;
24637;SDS011;12773;50.162;8.548;2023-07-31T04:26:22;5.70;;;2.17;;
24637;SDS011;12773;50.162;8.548;2023-07-31T04:29:09;7.03;;;2.60;;
24637;SDS011;12773;50.162;8.548;2023-07-31T04:31:57;6.50;;;2.20;;
24637;SDS011;12773;50.162;8.548;2023-07-31T04:34:44;8.40;;;2.58;;
24637;SDS011;12773;50.162;8.548;2023-07-31T04:37:31;11.97;;;2.72;;
24637;SDS011;12773;50.162;8.548;2023-07-31T04:40:18;6.12;;;2.40;;
24637;SDS011;12773;50.162;8.548;2023-07-31T04:43:05;6.25;;;2.27;;
24637;SDS011;12773;50.162;8.548;2023-07-31T04:45:53;9.18;;;2.80;;
24637;SDS011;12773;50.162;8.548;2023-07-31T04:48:40;8.65;;;2.60;;
24637;SDS011;12773;50.162;8.548;2023-07-31T04:51:28;6.17;;;2.30;;
24637;SDS011;12773;50.162;8.548;2023-07-31T04:54:16;7.00;;;2.20;;
24637;SDS011;12773;50.162;8.548;2023-07-31T04:57:03;4.67;;;2.08;;
24637;SDS011;12773;50.162;8.548;2023-07-31T04:59:52;7.42;;;2.35;;
24637;SDS011;12773;50.162;8.548;2023-07-31T05:02:40;6.37;;;2.40;;
24637;SDS011;12773;50.162;8.548;2023-07-31T05:05:27;9.55;;;2.25;;
24637;SDS011;12773;50.162;8.548;2023-07-31T05:08:14;5.20;;;2.25;;
24637;SDS011;12773;50.162;8.548;2023-07-31T05:11:02;6.40;;;2.33;;
24637;SDS011;12773;50.162;8.548;2023-07-31T05:13:50;10.03;;;2.58;;
24637;SDS011;12773;50.162;8.548;2023-07-31T05:16:37;12.40;;;3.50;;
24637;SDS011;12773;50.162;8.548;2023-07-31T05:19:25;7.50;;;1.90;;
24637;SDS011;12773;50.162;8.548;2023-07-31T05:22:12;7.80;;;2.08;;
24637;SDS011;12773;50.162;8.548;2023-07-31T05:25:00;9.25;;;2.95;;
24637;SDS011;12773;50.162;8.548;2023-07-31T05:27:47;6.40;;;2.35;;
24637;SDS011;12773;50.162;8.548;2023-07-31T05:30:34;8.90;;;2.37;;
24637;SDS011;12773;50.162;8.548;2023-07-31T05:33:21;7.70;;;2.40;;
24637;SDS011;12773;50.162;8.548;2023-07-31T05:36:09;8.05;;;2.58;;
24637;SDS011;12773;50.162;8.548;2023-07-31T05:38:56;9.15;;;2.60;;
24637;SDS011;12773;50.162;8.548;2023-07-31T05:41:44;6.35;;;2.22;;
24637;SDS011;12773;50.162;8.548;2023-07-31T05:44:31;6.92;;;2.20;;
24637;SDS011;12773;50.162;8.548;2023-07-31T05:47:19;6.40;;;2.17;;
24637;SDS011;12773;50.162;8.548;2023-07-31T05:50:06;4.55;;;2.65;;
24637;SDS011;12773;50.162;8.548;2023-07-31T05:52:54;10.88;;;2.50;;
24637;SDS011;12773;50.162;8.548;2023-07-31T05:55:42;8.10;;;2.15;;
24637;SDS011;12773;50.162;8.548;2023-07-31T05:58:29;9.28;;;2.33;;
24637;SDS011;12773;50.162;8.548;2023-07-31T06:01:17;8.83;;;2.35;;
24637;SDS011;12773;50.162;8.548;2023-07-31T06:04:04;7.97;;;2.58;;
24637;SDS011;12773;50.162;8.548;2023-07-31T06:06:51;11.18;;;2.40;;
24637;SDS011;12773;50.162;8.548;2023-07-31T06:09:39;8.90;;;2.77;;
24637;SDS011;12773;50.162;8.548;2023-07-31T06:12:26;7.28;;;2.75;;
24637;SDS011;12773;50.162;8.548;2023-07-31T06:15:13;7.62;;;2.42;;
24637;SDS011;12773;50.162;8.548;2023-07-31T06:18:01;10.58;;;3.58;;
24637;SDS011;12773;50.162;8.548;2023-07-31T06:20:50;9.83;;;3.12;;
24637;SDS011;12773;50.162;8.548;2023-07-31T06:23:39;7.25;;;2.50;;
24637;SDS011;12773;50.162;8.548;2023-07-31T06:26:26;10.98;;;3.10;;
24637;SDS011;12773;50.162;8.548;2023-07-31T06:29:14;5.53;;;2.00;;
24637;SDS011;12773;50.162;8.548;2023-07-31T06:32:01;8.28;;;2.45;;
24637;SDS011;12773;50.162;8.548;2023-07-31T06:34:49;7.37;;;2.52;;
24637;SDS011;12773;50.162;8.548;2023-07-31T06:37:37;7.35;;;2.50;;
24637;SDS011;12773;50.162;8.548;2023-07-31T06:40:25;8.73;;;2.45;;
24637;SDS011;12773;50.162;8.548;2023-07-31T06:43:13;8.35;;;2.70;;
24637;SDS011;12773;50.162;8.548;2023-07-31T06:46:04;6.40;;;2.33;;
24637;SDS011;12773;50.162;8.548;2023-07-31T06:48:52;4.70;;;2.22;;
24637;SDS011;12773;50.162;8.548;2023-07-31T06:51:41;8.00;;;2.58;;
24637;SDS011;12773;50.162;8.548;2023-07-31T06:54:29;8.23;;;2.37;;
24637;SDS011;12773;50.162;8.548;2023-07-31T06:57:16;9.93;;;2.08;;
24637;SDS011;12773;50.162;8.548;2023-07-31T07:00:04;8.18;;;2.35;;
24637;SDS011;12773;50.162;8.548;2023-07-31T07:02:52;5.45;;;2.12;;
24637;SDS011;12773;50.162;8.548;2023-07-31T07:05:40;5.30;;;2.15;;
24637;SDS011;12773;50.162;8.548;2023-07-31T07:08:28;5.65;;;2.50;;
24637;SDS011;12773;50.162;8.548;2023-07-31T07:11:15;7.00;;;2.40;;
24637;SDS011;12773;50.162;8.548;2023-07-31T07:14:03;16.93;;;2.62;;
24637;SDS011;12773;50.162;8.548;2023-07-31T07:16:51;7.55;;;3.00;;
24637;SDS011;12773;50.162;8.548;2023-07-31T07:19:40;5.35;;;2.50;;
24637;SDS011;12773;50.162;8.548;2023-07-31T07:22:28;9.78;;;2.50;;
24637;SDS011;12773;50.162;8.548;2023-07-31T07:25:16;7.40;;;2.50;;
24637;SDS011;12773;50.162;8.548;2023-07-31T07:28:03;6.00;;;2.40;;
24637;SDS011;12773;50.162;8.548;2023-07-31T07:30:51;9.05;;;2.33;;
24637;SDS011;12773;50.162;8.548;2023-07-31T07:33:40;6.85;;;2.50;;
24637;SDS011;12773;50.162;8.548;2023-07-31T07:36:27;6.40;;;2.40;;
24637;SDS011;12773;50.162;8.548;2023-07-31T07:39:15;5.65;;;2.50;;
24637;SDS011;12773;50.162;8.548;2023-07-31T07:42:02;4.90;;;2.50;;
24637;SDS011;12773;50.162;8.548;2023-07-31T07:44:49;9.08;;;2.08;;
24637;SDS011;12773;50.162;8.548;2023-07-31T07:47:37;8.05;;;2.30;;
24637;SDS011;12773;50.162;8.548;2023-07-31T07:50:26;6.65;;;2.45;;
24637;SDS011;12773;50.162;8.548;2023-07-31T07:53:14;8.58;;;2.33;;
24637;SDS011;12773;50.162;8.548;2023-07-31T07:56:01;6.58;;;2.55;;
24637;SDS011;12773;50.162;8.548;2023-07-31T07:58:49;9.75;;;2.50;;
24637;SDS011;12773;50.162;8.548;2023-07-31T08:01:37;8.55;;;2.40;;
24637;SDS011;12773;50.162;8.548;2023-07-31T08:04:24;7.17;;;2.42;;
24637;SDS011;12773;50.162;8.548;2023-07-31T08:07:12;5.40;;;2.60;;
24637;SDS011;12773;50.162;8.548;2023-07-31T08:09:59;5.47;;;2.55;;
24637;SDS011;12773;50.162;8.548;2023-07-31T08:12:47;6.40;;;2.33;;
24637;SDS011;12773;50.162;8.548;2023-07-31T08:15:34;4.65;;;2.00;;
24637;SDS011;12773;50.162;8.548;2023-07-31T08:18:21;5.22;;;2.15;;
24637;SDS011;12773;50.162;8.548;2023-07-31T08:21:09;5.80;;;2.47;;
24637;SDS011;12773;50.162;8.548;2023-07-31T08:23:56;7.58;;;2.35;;
24637;SDS011;12773;50.162;8.548;2023-07-31T08:26:43;5.90;;;2.10;;
24637;SDS011;12773;50.162;8.548;2023-07-31T08:29:31;6.08;;;2.08;;
24637;SDS011;12773;50.162;8.548;2023-07-31T08:32:18;8.03;;;2.40;;
24637;SDS011;12773;50.162;8.548;2023-07-31T08:35:06;4.60;;;2.08;;
24637;SDS011;12773;50.162;8.548;2023-07-31T08:37:54;7.85;;;2.60;;
24637;SDS011;12773;50.162;8.548;2023-07-31T08:40:41;6.30;;;2.55;;
24637;SDS011;12773;50.162;8.548;2023-07-31T08:43:28;5.78;;;2.27;;
24637;SDS011;12773;50.162;8.548;2023-07-31T08:46:16;6.37;;;2.22;;
24637;SDS011;12773;50.162;8.548;2023-07-31T08:49:05;7.33;;;2.75;;
24637;SDS011;12773;50.162;8.548;2023-07-31T08:51:53;6.50;;;2.22;;
24637;SDS011;12773;50.162;8.548;2023-07-31T08:54:43;5.28;;;2.17;;
24637;SDS011;12773;50.162;8.548;2023-07-31T08:57:30;6.37;;;2.20;;
24637;SDS011;12773;50.162;8.548;2023-07-31T09:00:18;6.87;;;2.60;;
24637;SDS011;12773;50.162;8.548;2023-07-31T09:03:09;7.60;;;2.50;;
24637;SDS011;12773;50.162;8.548;2023-07-31T09:06:01;6.35;;;2.20;;
24637;SDS011;12773;50.162;8.548;2023-07-31T09:08:51;7.70;;;2.02;;
24637;SDS011;12773;50.162;8.548;2023-07-31T09:11:38;8.05;;;2.47;;
24637;SDS011;12773;50.162;8.548;2023-07-31T09:14:26;7.75;;;2.25;;
24637;SDS011;12773;50.162;8.548;2023-07-31T09:17:14;7.03;;;2.55;;
24637;SDS011;12773;50.162;8.548;2023-07-31T09:20:16;5.70;;;2.15;;
24637;SDS011;12773;50.162;8.548;2023-07-31T09:23:05;6.62;;;2.35;;
24637;SDS011;12773;50.162;8.548;2023-07-31T09:25:53;7.12;;;2.20;;
24637;SDS011;12773;50.162;8.548;2023-07-31T09:28:41;7.22;;;2.20;;
24637;SDS011;12773;50.162;8.548;2023-07-31T09:31:32;6.78;;;2.60;;
24637;SDS011;12773;50.162;8.548;2023-07-31T09:34:28;7.53;;;2.20;;
24637;SDS011;12773;50.162;8.548;2023-07-31T09:37:17;8.35;;;2.25;;
24637;SDS011;12773;50.162;8.548;2023-07-31T09:40:04;5.70;;;2.33;;
24637;SDS011;12773;50.162;8.548;2023-07-31T09:42:53;6.33;;;2.45;;
24637;SDS011;12773;50.162;8.548;2023-07-31T09:45:42;9.50;;;2.45;;
24637;SDS011;12773;50.162;8.548;2023-07-31T09:48:31;6.58;;;2.17;;
24637;SDS011;12773;50.162;8.548;2023-07-31T09:51:25;8.10;;;2.30;;
24637;SDS011;12773;50.162;8.548;2023-07-31T09:54:15;8.45;;;3.52;;
24637;SDS011;12773;50.162;8.548;2023-07-31T09:57:16;11.55;;;4.35;;
24637;SDS011;12773;50.162;8.548;2023-07-31T10:02:48;6.37;;;2.35;;
24637;SDS011;12773;50.162;8.548;2023-07-31T10:05:44;6.05;;;2.37;;
24637;SDS011;12773;50.162;8.548;2023-07-31T10:08:30;9.73;;;2.77;;
24637;SDS011;12773;50.162;8.548;2023-07-31T10:11:19;6.10;;;2.05;;
24637;SDS011;12773;50.162;8.548;2023-07-31T10:14:08;6.33;;;2.47;;
24637;SDS011;12773;50.162;8.548;2023-07-31T10:16:57;6.05;;;2.47;;
24637;SDS011;12773;50.162;8.548;2023-07-31T10:19:45;8.20;;;2.50;;
24637;SDS011;12773;50.162;8.548;2023-07-31T10:22:33;6.17;;;2.25;;
24637;SDS011;12773;50.162;8.548;2023-07-31T10:25:21;7.00;;;2.12;;
24637;SDS011;12773;50.162;8.548;2023-07-31T10:28:10;4.45;;;2.17;;
24637;SDS011;12773;50.162;8.548;2023-07-31T10:30:59;7.62;;;2.45;;
24637;SDS011;12773;50.162;8.548;2023-07-31T10:33:48;6.33;;;2.72;;
24637;SDS011;12773;50.162;8.548;2023-07-31T10:36:36;8.13;;;2.60;;
24637;SDS011;12773;50.162;8.548;2023-07-31T10:39:33;8.53;;;2.47;;
24637;SDS011;12773;50.162;8.548;2023-07-31T10:42:29;8.05;;;2.83;;
24637;SDS011;12773;50.162;8.548;2023-07-31T10:45:31;7.33;;;2.50;;
24637;SDS011;12773;50.162;8.548;2023-07-31T10:48:22;6.00;;;2.22;;
24637;SDS011;12773;50.162;8.548;2023-07-31T10:51:10;6.60;;;2.58;;
24637;SDS011;12773;50.162;8.548;2023-07-31T10:54:11;4.28;;;2.20;;
24637;SDS011;12773;50.162;8.548;2023-07-31T10:56:59;11.20;;;2.77;;
24637;SDS011;12773;50.162;8.548;2023-07-31T10:59:47;8.23;;;2.58;;
24637;SDS011;12773;50.162;8.548;2023-07-31T11:02:35;8.90;;;2.77;;
24637;SDS011;12773;50.162;8.548;2023-07-31T11:05:23;9.10;;;3.20;;
24637;SDS011;12773;50.162;8.548;2023-07-31T11:08:31;5.92;;;2.20;;
24637;SDS011;12773;50.162;8.548;2023-07-31T11:11:20;6.42;;;2.50;;
24637;SDS011;12773;50.162;8.548;2023-07-31T11:14:07;6.70;;;2.55;;
24637;SDS011;12773;50.162;8.548;2023-07-31T11:16:57;4.80;;;2.27;;
24637;SDS011;12773;50.162;8.548;2023-07-31T11:19:44;5.67;;;2.20;;
24637;SDS011;12773;50.162;8.548;2023-07-31T11:22:31;7.22;;;2.25;;
24637;SDS011;12773;50.162;8.548;2023-07-31T11:25:19;4.95;;;2.25;;
24637;SDS011;12773;50.162;8.548;2023-07-31T11:28:08;5.22;;;2.40;;
24637;SDS011;12773;50.162;8.548;2023-07-31T11:30:58;5.53;;;2.62;;
24637;SDS011;12773;50.162;8.548;2023-07-31T11:33:45;7.60;;;2.62;;
24637;SDS011;12773;50.162;8.548;2023-07-31T11:36:33;8.63;;;2.65;;
24637;SDS011;12773;50.162;8.548;2023-07-31T11:39:21;8.63;;;2.60;;
24637;SDS011;12773;50.162;8.548;2023-07-31T11:42:08;6.05;;;2.50;;
24637;SDS011;12773;50.162;8.548;2023-07-31T11:44:55;7.87;;;2.60;;
24637;SDS011;12773;50.162;8.548;2023-07-31T11:47:43;4.72;;;2.33;;
24637;SDS011;12773;50.162;8.548;2023-07-31T11:50:33;6.47;;;2.67;;
24637;SDS011;12773;50.162;8.548;2023-07-31T11:53:32;8.33;;;2.65;;
24637;SDS011;12773;50.162;8.548;2023-07-31T11:56:34;5.85;;;2.37;;
24637;SDS011;12773;50.162;8.548;2023-07-31T11:59:22;5.20;;;2.22;;
24637;SDS011;12773;50.162;8.548;2023-07-31T12:02:09;8.73;;;2.27;;
24637;SDS011;12773;50.162;8.548;2023-07-31T12:04:57;4.50;;;2.02;;
24637;SDS011;12773;50.162;8.548;2023-07-31T12:07:51;6.03;;;2.80;;
24637;SDS011;12773;50.162;8.548;2023-07-31T12:10:40;5.67;;;2.60;;
24637;SDS011;12773;50.162;8.548;2023-07-31T12:13:28;12.00;;;2.83;;
24637;SDS011;12773;50.162;8.548;2023-07-31T12:16:17;6.83;;;3.10;;
24637;SDS011;12773;50.162;8.548;2023-07-31T12:19:04;5.35;;;2.60;;
24637;SDS011;12773;50.162;8.548;2023-07-31T12:21:53;5.25;;;2.10;;
24637;SDS011;12773;50.162;8.548;2023-07-31T12:24:43;4.15;;;2.30;;
24637;SDS011;12773;50.162;8.548;2023-07-31T12:27:32;5.10;;;2.37;;
24637;SDS011;12773;50.162;8.548;2023-07-31T12:30:35;4.67;;;2.40;;
24637;SDS011;12773;50.162;8.548;2023-07-31T12:33:22;8.38;;;2.62;;
24637;SDS011;12773;50.162;8.548;2023-07-31T12:36:15;5.03;;;2.30;;
24637;SDS011;12773;50.162;8.548;2023-07-31T12:38:59;6.37;;;2.37;;
24637;SDS011;12773;50.162;8.548;2023-07-31T12:41:47;11.68;;;2.70;;
24637;SDS011;12773;50.162;8.548;2023-07-31T12:44:35;7.80;;;2.75;;
24637;SDS011;12773;50.162;8.548;2023-07-31T12:47:22;4.47;;;2.55;;
24637;SDS011;12773;50.162;8.548;2023-07-31T12:50:10;7.78;;;2.95;;
24637;SDS011;12773;50.162;8.548;2023-07-31T12:52:57;8.23;;;3.02;;
24637;SDS011;12773;50.162;8.548;2023-07-31T12:55:44;6.90;;;2.67;;
24637;SDS011;12773;50.162;8.548;2023-07-31T12:58:32;6.28;;;2.27;;
24637;SDS011;12773;50.162;8.548;2023-07-31T13:01:19;5.08;;;2.62;;
24637;SDS011;12773;50.162;8.548;2023-07-31T13:04:06;7.45;;;2.58;;
24637;SDS011;12773;50.162;8.548;2023-07-31T13:06:54;7.78;;;2.55;;
24637;SDS011;12773;50.162;8.548;2023-07-31T13:09:41;6.47;;;2.77;;
24637;SDS011;12773;50.162;8.548;2023-07-31T13:12:29;6.10;;;2.60;;
24637;SDS011;12773;50.162;8.548;2023-07-31T13:15:17;4.40;;;2.70;;
24637;SDS011;12773;50.162;8.548;2023-07-31T13:18:04;6.50;;;2.17;;
24637;SDS011;12773;50.162;8.548;2023-07-31T13:20:52;5.80;;;2.70;;
24637;SDS011;12773;50.162;8.548;2023-07-31T13:23:39;6.92;;;2.67;;
24637;SDS011;12773;50.162;8.548;2023-07-31T13:26:26;7.85;;;2.75;;
24637;SDS011;12773;50.162;8.548;2023-07-31T13:29:13;4.95;;;2.40;;
24637;SDS011;12773;50.162;8.548;2023-07-31T13:32:01;5.37;;;2.47;;
24637;SDS011;12773;50.162;8.548;2023-07-31T13:34:48;3.30;;;2.27;;
24637;SDS011;12773;50.162;8.548;2023-07-31T13:37:36;6.97;;;2.50;;
24637;SDS011;12773;50.162;8.548;2023-07-31T13:40:23;3.67;;;2.10;;
24637;SDS011;12773;50.162;8.548;2023-07-31T13:43:10;6.35;;;2.30;;
24637;SDS011;12773;50.162;8.548;2023-07-31T13:45:58;6.42;;;2.27;;
24637;SDS011;12773;50.162;8.548;2023-07-31T13:48:47;5.30;;;2.15;;
24637;SDS011;12773;50.162;8.548;2023-07-31T13:51:34;5.78;;;2.52;;
24637;SDS011;12773;50.162;8.548;2023-07-31T13:54:22;5.12;;;2.17;;
24637;SDS011;12773;50.162;8.548;2023-07-31T13:57:11;6.05;;;1.95;;
24637;SDS011;12773;50.162;8.548;2023-07-31T13:59:58;5.08;;;2.00;;
24637;SDS011;12773;50.162;8.548;2023-07-31T14:02:46;4.10;;;2.00;;
24637;SDS011;12773;50.162;8.548;2023-07-31T14:05:34;4.37;;;1.90;;
24637;SDS011;12773;50.162;8.548;2023-07-31T14:08:21;3.37;;;1.92;;
24637;SDS011;12773;50.162;8.548;2023-07-31T14:11:09;5.72;;;2.00;;
24637;SDS011;12773;50.162;8.548;2023-07-31T14:13:56;6.75;;;1.92;;
24637;SDS011;12773;50.162;8.548;2023-07-31T14:16:43;5.42;;;2.05;;
24637;SDS011;12773;50.162;8.548;2023-07-31T14:19:31;4.17;;;1.80;;
24637;SDS011;12773;50.162;8.548;2023-07-31T14:22:28;6.92;;;2.08;;
24637;SDS011;12773;50.162;8.548;2023-07-31T14:25:16;3.30;;;1.87;;
24637;SDS011;12773;50.162;8.548;2023-07-31T14:28:03;4.42;;;2.08;;
24637;SDS011;12773;50.162;8.548;2023-07-31T14:30:51;5.15;;;2.05;;
24637;SDS011;12773;50.162;8.548;2023-07-31T14:33:38;5.97;;;2.10;;
24637;SDS011;12773;50.162;8.548;2023-07-31T14:36:26;4.90;;;2.05;;
24637;SDS011;12773;50.162;8.548;2023-07-31T14:39:13;4.45;;;2.10;;
24637;SDS011;12773;50.162;8.548;2023-07-31T14:42:01;5.55;;;2.10;;
24637;SDS011;12773;50.162;8.548;2023-07-31T14:44:48;4.80;;;1.85;;
24637;SDS011;12773;50.162;8.548;2023-07-31T14:47:36;4.08;;;2.02;;
24637;SDS011;12773;50.162;8.548;2023-07-31T14:50:23;6.95;;;2.55;;
24637;SDS011;12773;50.162;8.548;2023-07-31T14:53:11;5.37;;;2.10;;
24637;SDS011;12773;50.162;8.548;2023-07-31T14:55:59;6.85;;;2.98;;
24637;SDS011;12773;50.162;8.548;2023-07-31T14:58:46;6.85;;;2.42;;
24637;SDS011;12773;50.162;8.548;2023-07-31T15:01:33;6.12;;;2.70;;
24637;SDS011;12773;50.162;8.548;2023-07-31T15:04:20;7.78;;;2.72;;
24637;SDS011;12773;50.162;8.548;2023-07-31T15:07:08;7.55;;;2.52;;
24637;SDS011;12773;50.162;8.548;2023-07-31T15:09:55;5.00;;;2.30;;
24637;SDS011;12773;50.162;8.548;2023-07-31T15:12:42;7.33;;;2.55;;
24637;SDS011;12773;50.162;8.548;2023-07-31T15:15:30;3.98;;;2.77;;
24637;SDS011;12773;50.162;8.548;2023-07-31T15:18:18;4.78;;;2.25;;
24637;SDS011;12773;50.162;8.548;2023-07-31T15:21:05;6.05;;;2.60;;
24637;SDS011;12773;50.162;8.548;2023-07-31T15:23:55;8.15;;;2.60;;
24637;SDS011;12773;50.162;8.548;2023-07-31T15:26:42;4.03;;;2.30;;
24637;SDS011;12773;50.162;8.548;2023-07-31T15:29:29;4.00;;;1.90;;
24637;SDS011;12773;50.162;8.548;2023-07-31T15:32:18;3.77;;;1.87;;
24637;SDS011;12773;50.162;8.548;2023-07-31T15:35:06;2.35;;;1.82;;
24637;SDS011;12773;50.162;8.548;2023-07-31T15:37:53;6.22;;;1.85;;
24637;SDS011;12773;50.162;8.548;2023-07-31T15:40:40;1.98;;;1.30;;
24637;SDS011;12773;50.162;8.548;2023-07-31T15:43:28;4.08;;;1.50;;
24637;SDS011;12773;50.162;8.548;2023-07-31T15:46:15;3.92;;;1.50;;
24637;SDS011;12773;50.162;8.548;2023-07-31T15:49:02;2.12;;;1.37;;
24637;SDS011;12773;50.162;8.548;2023-07-31T15:51:50;3.75;;;1.10;;
24637;SDS011;12773;50.162;8.548;2023-07-31T15:54:37;2.25;;;1.20;;
24637;SDS011;12773;50.162;8.548;2023-07-31T15:57:25;2.33;;;1.30;;
24637;SDS011;12773;50.162;8.548;2023-07-31T16:00:14;2.60;;;1.10;;
24637;SDS011;12773;50.162;8.548;2023-07-31T16:03:01;3.58;;;1.10;;
24637;SDS011;12773;50.162;8.548;2023-07-31T16:05:49;3.98;;;1.45;;
24637;SDS011;12773;50.162;8.548;2023-07-31T16:08:36;1.52;;;1.00;;
24637;SDS011;12773;50.162;8.548;2023-07-31T16:11:24;2.65;;;1.00;;
24637;SDS011;12773;50.162;8.548;2023-07-31T16:14:12;1.30;;;0.80;;
24637;SDS011;12773;50.162;8.548;2023-07-31T16:17:00;3.10;;;1.20;;
24637;SDS011;12773;50.162;8.548;2023-07-31T16:19:49;3.58;;;1.30;;
24637;SDS011;12773;50.162;8.548;2023-07-31T16:22:36;3.05;;;1.15;;
24637;SDS011;12773;50.162;8.548;2023-07-31T16:25:24;2.17;;;1.25;;
24637;SDS011;12773;50.162;8.548;2023-07-31T16:28:11;2.75;;;1.20;;
24637;SDS011;12773;50.162;8.548;2023-07-31T16:30:59;3.10;;;1.42;;
24637;SDS011;12773;50.162;8.548;2023-07-31T16:33:45;2.02;;;1.20;;
24637;SDS011;12773;50.162;8.548;2023-07-31T16:36:33;3.85;;;1.77;;
24637;SDS011;12773;50.162;8.548;2023-07-31T16:39:20;6.50;;;1.22;;
24637;SDS011;12773;50.162;8.548;2023-07-31T16:42:07;3.50;;;1.40;;
24637;SDS011;12773;50.162;8.548;2023-07-31T16:44:55;2.60;;;1.40;;
24637;SDS011;12773;50.162;8.548;2023-07-31T16:47:42;3.10;;;1.32;;
24637;SDS011;12773;50.162;8.548;2023-07-31T16:50:29;5.15;;;1.50;;
24637;SDS011;12773;50.162;8.548;2023-07-31T16:53:17;6.90;;;1.52;;
24637;SDS011;12773;50.162;8.548;2023-07-31T16:56:03;2.25;;;1.32;;
24637;SDS011;12773;50.162;8.548;2023-07-31T16:58:52;4.92;;;1.17;;
24637;SDS011;12773;50.162;8.548;2023-07-31T17:01:40;3.33;;;1.42;;